METAR AND TAF INFORMATION
METAR FOR EFHK
EFHK 130920Z 22009KT 180V250 9999 FEW009 BKN012 10/07 Q1010 TEMPO SCT012
EFHK 130850Z 19009KT 9999 BKN007 10/07 Q1010 TEMPO SCT008
EFHK 130820Z 19006KT 9999 SCT005 BKN040 08/06 Q1010 TEMPO BKN006
EFHK 130750Z 20006KT 9999 -DZ BKN005 BKN030 07/06 Q1010 TEMPO FEW005 BKN030
EFHK 130720Z 20005KT 170V240 9999 FEW005 BKN030 06/06 Q1010 TEMPO BKN005
EFHK 130650Z 20004KT 9999 FEW003 BKN030 05/05 Q1010 TEMPO BKN004
EFHK 130620Z 23004KT 9999 OVC003 04/04 Q1010 NOSIG

TAF EFHK 130830Z 1309/1409 20006KT 9999 SCT005 BKN040
PROB30
TEMPO 1309/1313 BKN006
BECMG 1313/1315 BKN005
TEMPO 1315/1319 3000 -DZRA BR BKN003
BECMG 1319/1321 0500 FG VV002
PROB30 1401/1408 8000 NSW FEW004
BECMG 1408/1409 1000 -RA BR

 AIRPORT MAP

 RUNWAY INFORMATION
Runway 04L Runway length 10039 ft Runway width 197 ft
Runway elevation 133 ft Runway displaced threshold 0 ft Runway heading 48
Runway 22R Runway length 10039 ft Runway width 197 ft
Runway elevation 178 ft Runway displaced threshold 196 ft Runway heading 228
Runway 04R Runway length 11286 ft Runway width 197 ft
Runway elevation 150 ft Runway displaced threshold 787 ft Runway heading 48
Runway 22L Runway length 11286 ft Runway width 197 ft
Runway elevation 147 ft Runway displaced threshold 0 ft Runway heading 228
Runway 15 Runway length 9518 ft Runway width 197 ft
Runway elevation 162 ft Runway displaced threshold 0 ft Runway heading 154
Runway 33 Runway length 9518 ft Runway width 197 ft
Runway elevation 146 ft Runway displaced threshold 0 ft Runway heading 334

 AIRPORT FREQUENCIES
Type APP Name APP Frequency 119.1 MHZ
Type ATIS Name HEL VOR Frequency 114.2 MHZ
Type DEL Name Frequency 118.125 MHZ
Type GND Name GND Frequency 121.8 MHZ
Type PMSV Name PMSV METRO Frequency 125.1 MHZ
Type RMP Name RMP Frequency 121.65 MHZ
Type TWR Name 22L/04R an Frequency 118.6 MHZ
Type APP Name Frequency 129.85 MHZ
Type ATIS Name Frequency 135.075 MHZ
Type TWR Name 22R/04L Frequency 118.85 MHZ

 AIRPORT NEAR NAVIGATION AIDS
Type NDB Name Espoo Frequency 381 KHZ
Type VOR-DME Name Helsinki Frequency 114200 KHZ
Type NDB Name Korso Frequency 322 KHZ

-